Time;durP1;ratioP1;P1;durP2;ratioP2;P2;SDS_P1;SDS_P2;PMS_P1;PMS_P2;Temp;Humidity;BMP_temperature;BMP_pressure;BME280_temperature;BME280_humidity;BME280_pressure;Samples;Min_cycle;Max_cycle;Signal;HPM_P1;HPM_P2
2021/05/14 00:01:00;;;;;;;17.38;15.68;;;;;21.10;99557.00;;;;2078819;28;20209;-53
2021/05/14 00:02:03;;;;;;;19.20;16.13;;;;;21.10;99562.00;;;;2078659;28;20634;-52
2021/05/14 00:03:04;;;;;;;17.70;16.00;;;;;21.10;99557.00;;;;2078511;28;20856;-53
2021/05/14 00:04:04;;;;;;;17.27;15.27;;;;;21.10;99554.00;;;;2078491;28;20217;-53
2021/05/14 00:05:06;;;;;;;16.00;14.40;;;;;21.10;99557.00;;;;2078644;28;20214;-53
2021/05/14 00:06:06;;;;;;;17.83;15.75;;;;;21.10;99562.00;;;;2077958;28;20233;-52
2021/05/14 00:07:07;;;;;;;17.43;14.93;;;;;21.10;99561.00;;;;2078664;28;20318;-53
2021/05/14 00:08:07;;;;;;;17.03;15.33;;;;;21.10;99564.00;;;;2078661;28;20344;-53
2021/05/14 00:09:07;;;;;;;17.03;15.23;;;;;21.10;99562.00;;;;2078521;28;20608;-53
2021/05/14 00:10:08;;;;;;;15.87;14.27;;;;;21.10;99562.00;;;;2071817;28;20326;-52
2021/05/14 00:11:08;;;;;;;17.50;15.70;;;;;21.10;99561.00;;;;2071248;28;20215;-53
2021/05/14 00:12:09;;;;;;;16.13;14.40;;;;;21.10;99563.00;;;;2071775;28;20469;-52
2021/05/14 00:13:09;;;;;;;17.83;14.77;;;;;21.10;99555.00;;;;2077944;28;20225;-52
2021/05/14 00:14:10;;;;;;;16.13;14.33;;;;;21.10;99557.00;;;;2077880;28;20210;-53
2021/05/14 00:15:10;;;;;;;16.80;15.10;;;;;21.10;99560.00;;;;2070112;28;20223;-54
2021/05/14 00:16:11;;;;;;;14.33;12.93;;;;;21.10;99566.00;;;;2069752;28;20226;-52
2021/05/14 00:17:11;;;;;;;15.70;14.10;;;;;21.10;99563.00;;;;2070568;28;20679;-52
2021/05/14 00:18:11;;;;;;;15.47;13.83;;;;;21.10;99564.00;;;;2069992;28;20288;-52
2021/05/14 00:19:12;;;;;;;16.30;14.70;;;;;21.10;99560.00;;;;2070662;28;20214;-53
2021/05/14 00:20:12;;;;;;;15.97;13.70;;;;;21.10;99566.00;;;;2072132;28;20578;-53
2021/05/14 00:21:13;;;;;;;15.53;13.57;;;;;21.10;99556.00;;;;2071957;28;20217;-52
2021/05/14 00:22:13;;;;;;;14.70;13.07;;;;;21.10;99545.00;;;;2071337;28;20217;-52
2021/05/14 00:23:13;;;;;;;15.47;13.87;;;;;21.10;99555.00;;;;2071449;28;20210;-52
2021/05/14 00:24:14;;;;;;;15.23;13.73;;;;;21.10;99552.00;;;;2071848;28;20686;-52
2021/05/14 00:25:14;;;;;;;14.57;12.80;;;;;21.10;99554.00;;;;2072042;28;20297;-53
2021/05/14 00:26:14;;;;;;;14.60;13.10;;;;;21.10;99557.00;;;;2071331;28;20698;-52
2021/05/14 00:27:15;;;;;;;15.43;13.80;;;;;21.10;99546.00;;;;2072211;28;20208;-52
2021/05/14 00:28:15;;;;;;;15.63;13.90;;;;;21.10;99544.00;;;;2071856;28;20220;-52
2021/05/14 00:29:15;;;;;;;13.90;12.50;;;;;21.10;99554.00;;;;2072086;28;20218;-52
2021/05/14 00:30:16;;;;;;;14.63;12.97;;;;;21.10;99551.00;;;;2072008;28;20218;-53
2021/05/14 00:31:17;;;;;;;14.83;13.40;;;;;21.10;99552.00;;;;2072010;28;20250;-52
2021/05/14 00:32:17;;;;;;;14.33;12.83;;;;;21.10;99552.00;;;;2071858;28;20959;-53
2021/05/14 00:33:17;;;;;;;14.30;12.90;;;;;21.10;99542.00;;;;2072177;28;20302;-52
2021/05/14 00:34:18;;;;;;;15.07;13.53;;;;;21.10;99545.00;;;;2072214;28;20300;-52
2021/05/14 00:35:18;;;;;;;14.20;12.70;;;;;21.10;99544.00;;;;2071996;28;20782;-52
2021/05/14 00:36:18;;;;;;;14.73;12.93;;;;;21.10;99537.00;;;;2071145;28;20408;-52
2021/05/14 00:37:19;;;;;;;14.00;12.53;;;;;21.10;99541.00;;;;2072122;28;20233;-53
2021/05/14 00:38:20;;;;;;;13.77;12.37;;;;;21.10;99546.00;;;;2075884;28;20221;-52
2021/05/14 00:39:20;;;;;;;14.75;12.27;;;;;21.10;99545.00;;;;2078714;28;20218;-53
2021/05/14 00:40:21;;;;;;;13.13;11.83;;;;;21.10;99545.00;;;;2073293;28;20210;-53
2021/05/14 00:41:21;;;;;;;15.27;13.67;;;;;21.10;99542.00;;;;2072956;28;20219;-53
2021/05/14 00:42:22;;;;;;;13.17;11.77;;;;;21.10;99542.00;;;;2072781;28;20263;-55
2021/05/14 00:43:22;;;;;;;13.23;11.87;;;;;21.10;99544.00;;;;2071884;28;20223;-53
2021/05/14 00:44:27;;;;;;;13.53;12.13;;;;;21.10;99544.00;;;;2071476;28;20257;-52
2021/05/14 00:45:27;;;;;;;12.90;11.68;;;;;21.10;99542.00;;;;2071771;28;20221;-53
2021/05/14 00:46:27;;;;;;;13.17;11.87;;;;;21.10;99541.00;;;;2071184;28;20215;-53
2021/05/14 00:47:28;;;;;;;12.60;11.40;;;;;21.10;99544.00;;;;2071953;28;20214;-53
2021/05/14 00:48:29;;;;;;;12.40;11.20;;;;;21.00;99540.00;;;;2071618;28;20223;-52
2021/05/14 00:49:29;;;;;;;13.50;12.10;;;;;21.10;99545.00;;;;2071660;28;20222;-53
2021/05/14 00:50:30;;;;;;;13.20;11.80;;;;;21.00;99545.00;;;;2072037;28;20245;-53
2021/05/14 00:51:30;;;;;;;13.10;11.77;;;;;21.00;99549.00;;;;2071778;28;20242;-53
2021/05/14 00:52:30;;;;;;;12.20;11.00;;;;;21.00;99540.00;;;;2071122;28;21223;-53
2021/05/14 00:53:31;;;;;;;13.60;12.20;;;;;21.10;99544.00;;;;2071344;28;20699;-53
2021/05/14 00:54:32;;;;;;;12.75;11.55;;;;;21.10;99543.00;;;;2071796;28;20272;-52
2021/05/14 00:55:32;;;;;;;12.57;11.37;;;;;21.10;99543.00;;;;2071121;28;20234;-52
2021/05/14 00:56:33;;;;;;;12.33;11.10;;;;;21.10;99539.00;;;;2068827;28;20226;-53
2021/05/14 00:57:34;;;;;;;12.37;11.07;;;;;21.00;99541.00;;;;2070193;28;20273;-53
2021/05/14 00:58:34;;;;;;;11.13;10.02;;;;;21.00;99539.00;;;;2071146;28;20909;-52
2021/05/14 00:59:34;;;;;;;11.57;10.47;;;;;21.00;99545.00;;;;2075994;28;20217;-53
2021/05/14 01:00:35;;;;;;;12.47;11.27;;;;;21.00;99540.00;;;;2079363;28;20233;-52
2021/05/14 01:01:35;;;;;;;12.47;11.20;;;;;21.00;99542.00;;;;2071902;28;20301;-52
2021/05/14 01:02:36;;;;;;;11.73;10.63;;;;;21.00;99542.00;;;;2071539;28;20687;-52
2021/05/14 01:03:36;;;;;;;11.87;10.67;;;;;21.00;99541.00;;;;2071674;28;20225;-53
2021/05/14 01:04:37;;;;;;;11.60;10.40;;;;;21.00;99535.00;;;;2071636;28;20295;-52
2021/05/14 01:05:37;;;;;;;11.90;10.80;;;;;21.00;99550.00;;;;2071306;28;20679;-52
2021/05/14 01:06:37;;;;;;;12.20;11.00;;;;;21.00;99535.00;;;;2071192;28;20222;-53
2021/05/14 01:07:38;;;;;;;12.37;11.17;;;;;21.00;99540.00;;;;2071458;28;20245;-52
2021/05/14 01:08:38;;;;;;;11.70;10.60;;;;;21.00;99539.00;;;;2071875;28;20238;-53
2021/05/14 01:09:39;;;;;;;12.30;11.10;;;;;21.00;99543.00;;;;2075055;28;20326;-52
2021/05/14 01:10:40;;;;;;;11.73;10.63;;;;;21.00;99540.00;;;;2072620;28;20281;-53
2021/05/14 01:11:40;;;;;;;10.90;9.90;;;;;21.00;99542.00;;;;2072548;28;20512;-53
2021/05/14 01:12:41;;;;;;;11.10;10.10;;;;;21.00;99543.00;;;;2072096;28;20211;-53
2021/05/14 01:13:41;;;;;;;12.50;11.30;;;;;21.00;99539.00;;;;2071935;28;20222;-53
2021/05/14 01:14:42;;;;;;;11.60;10.40;;;;;21.00;99540.00;;;;2071641;28;20218;-52
2021/05/14 01:15:42;;;;;;;10.47;9.47;;;;;21.00;99537.00;;;;2071490;28;20226;-53
2021/05/14 01:16:42;;;;;;;11.20;10.10;;;;;21.00;99534.00;;;;2071086;28;20219;-53
2021/05/14 01:17:43;;;;;;;11.30;10.27;;;;;21.00;99532.00;;;;2071021;28;20219;-53
2021/05/14 01:18:43;;;;;;;11.80;10.70;;;;;21.00;99537.00;;;;2070864;28;20829;-52
2021/05/14 01:19:43;;;;;;;11.00;9.90;;;;;21.00;99536.00;;;;2070682;28;20218;-52
2021/05/14 01:20:44;;;;;;;10.83;9.83;;;;;21.00;99537.00;;;;2071556;28;20218;-52
2021/05/14 01:21:44;;;;;;;10.80;9.70;;;;;21.00;99545.00;;;;2071537;28;20214;-52
2021/05/14 01:22:44;;;;;;;10.27;9.33;;;;;21.00;99540.00;;;;2070855;28;20579;-53
2021/05/14 01:23:45;;;;;;;10.23;9.13;;;;;21.00;99536.00;;;;2063070;28;20223;-52
2021/05/14 01:24:45;;;;;;;10.73;9.63;;;;;21.00;99542.00;;;;2070980;28;20353;-53
2021/05/14 01:25:47;;;;;;;9.87;8.97;;;;;21.00;99540.00;;;;2071525;28;20214;-52
2021/05/14 01:26:47;;;;;;;11.43;10.23;;;;;21.00;99543.00;;;;2070833;28;20675;-53
2021/05/14 01:27:47;;;;;;;10.27;9.27;;;;;21.00;99547.00;;;;2070776;28;20222;-52
2021/05/14 01:28:48;;;;;;;11.33;9.43;;;;;21.00;99540.00;;;;2070758;28;20222;-53
2021/05/14 01:29:48;;;;;;;10.30;9.30;;;;;21.00;99543.00;;;;2071614;28;20238;-53
2021/05/14 01:30:49;;;;;;;10.30;9.30;;;;;21.00;99542.00;;;;2068565;28;20655;-52
2021/05/14 01:31:50;;;;;;;10.07;9.10;;;;;21.00;99544.00;;;;2071444;28;20222;-52
2021/05/14 01:32:50;;;;;;;10.90;9.73;;;;;21.00;99545.00;;;;2071443;28;20222;-52
2021/05/14 01:33:51;;;;;;;9.47;8.57;;;;;21.00;99540.00;;;;2071497;28;20223;-52
2021/05/14 01:34:51;;;;;;;10.20;9.00;;;;;21.00;99541.00;;;;2075803;28;20213;-52
2021/05/14 01:35:51;;;;;;;10.70;9.60;;;;;21.00;99542.00;;;;2079489;28;20233;-52
2021/05/14 01:36:52;;;;;;;9.47;8.53;;;;;20.90;99538.00;;;;2078796;28;20293;-52
2021/05/14 01:37:52;;;;;;;9.83;8.83;;;;;20.90;99548.00;;;;2079600;28;20210;-52
2021/05/14 01:38:52;;;;;;;9.20;8.30;;;;;20.90;99549.00;;;;2079351;28;20211;-53
2021/05/14 01:39:56;;;;;;;9.83;8.70;;;;;20.90;99546.00;;;;2077718;28;20210;-52
2021/05/14 01:40:56;;;;;;;9.95;9.05;;;;;20.90;99544.00;;;;2071894;28;20211;-53
2021/05/14 01:41:57;;;;;;;9.10;8.23;;;;;21.00;99543.00;;;;2071913;28;20246;-53
2021/05/14 01:42:57;;;;;;;8.40;7.60;;;;;20.90;99548.00;;;;2071698;28;20675;-52
2021/05/14 01:43:57;;;;;;;9.00;8.10;;;;;20.90;99538.00;;;;2071547;28;20225;-53
2021/05/14 01:44:58;;;;;;;8.97;8.17;;;;;21.00;99543.00;;;;2071466;28;20298;-53
2021/05/14 01:45:58;;;;;;;9.67;8.70;;;;;20.60;99542.00;;;;2071605;28;20970;-53
2021/05/14 01:46:58;;;;;;;9.33;8.43;;;;;21.00;99541.00;;;;2070653;28;20811;-53
2021/05/14 01:47:59;;;;;;;9.60;8.60;;;;;20.90;99537.00;;;;2071513;28;20223;-53
2021/05/14 01:48:59;;;;;;;8.27;7.47;;;;;20.90;99537.00;;;;2071103;28;20605;-53
2021/05/14 01:49:59;;;;;;;9.67;8.00;;;;;21.00;99542.00;;;;2071502;28;20297;-52
2021/05/14 01:51:14;;;;;;;8.40;7.50;;;;;21.00;99547.00;;;;2070418;28;20223;-52
2021/05/14 01:52:14;;;;;;;8.93;8.02;;;;;21.00;99543.00;;;;2060598;28;20695;-52
2021/05/14 01:53:14;;;;;;;9.30;8.40;;;;;21.00;99540.00;;;;2071006;28;20210;-53
2021/05/14 01:54:15;;;;;;;9.33;8.43;;;;;20.90;99540.00;;;;2079308;28;20210;-53
2021/05/14 01:55:15;;;;;;;9.53;8.63;;;;;21.00;99539.00;;;;2079416;28;20198;-53
2021/05/14 01:56:16;;;;;;;7.90;7.10;;;;;20.90;99543.00;;;;2078572;28;20219;-53
2021/05/14 01:57:16;;;;;;;9.97;9.07;;;;;20.90;99537.00;;;;2079595;28;20276;-53
2021/05/14 01:58:17;;;;;;;8.50;7.70;;;;;20.90;99538.00;;;;2079625;28;20222;-53
2021/05/14 01:59:17;;;;;;;8.30;7.50;;;;;20.90;99540.00;;;;2072871;28;20726;-53
2021/05/14 02:00:18;;;;;;;8.70;7.90;;;;;20.90;99541.00;;;;2071213;28;20207;-53
2021/05/14 02:01:18;;;;;;;7.97;7.17;;;;;20.90;99538.00;;;;2071453;28;20226;-52
2021/05/14 02:02:21;;;;;;;7.70;7.00;;;;;20.90;99536.00;;;;2070798;28;20580;-52
2021/05/14 02:03:21;;;;;;;9.10;8.18;;;;;20.90;99539.00;;;;2075108;28;20230;-52
2021/05/14 02:04:22;;;;;;;9.30;8.40;;;;;20.90;99540.00;;;;2079085;28;20297;-53
2021/05/14 02:05:22;;;;;;;8.33;7.53;;;;;20.90;99539.00;;;;2079330;28;20305;-53
2021/05/14 02:06:22;;;;;;;8.87;7.97;;;;;20.90;99533.00;;;;2078583;28;20690;-52
2021/05/14 02:07:23;;;;;;;8.30;7.40;;;;;20.90;99537.00;;;;2079721;28;20277;-53
2021/05/14 02:08:23;;;;;;;8.40;7.60;;;;;20.90;99541.00;;;;2079488;28;20271;-52
2021/05/14 02:09:24;;;;;;;8.13;7.37;;;;;20.90;99534.00;;;;2079253;28;20220;-53
2021/05/14 02:10:24;;;;;;;8.70;7.90;;;;;20.90;99537.00;;;;2072952;28;20219;-53
2021/05/14 02:11:24;;;;;;;7.63;6.93;;;;;20.90;99538.00;;;;2073991;28;20641;-53
2021/05/14 02:12:25;;;;;;;7.77;7.00;;;;;20.90;99536.00;;;;2079626;28;20215;-53
2021/05/14 02:13:25;;;;;;;8.13;7.30;;;;;20.90;99538.00;;;;2071818;28;20219;-53
2021/05/14 02:14:25;;;;;;;7.53;6.83;;;;;20.90;99533.00;;;;2071334;28;20695;-52
2021/05/14 02:15:26;;;;;;;7.77;6.97;;;;;20.90;99534.00;;;;2071124;28;20577;-53
2021/05/14 02:16:26;;;;;;;7.03;6.40;;;;;20.90;99537.00;;;;2070482;28;20227;-52
2021/05/14 02:17:27;;;;;;;7.90;7.20;;;;;20.90;99538.00;;;;2071078;28;20293;-52
2021/05/14 02:18:27;;;;;;;8.33;7.60;;;;;20.90;99534.00;;;;2071254;28;20298;-52
2021/05/14 02:19:28;;;;;;;7.57;6.87;;;;;20.90;99532.00;;;;2070965;28;20207;-52
2021/05/14 02:20:28;;;;;;;7.63;6.93;;;;;20.90;99534.00;;;;2071024;28;20211;-52
2021/05/14 02:21:29;;;;;;;7.70;7.00;;;;;20.90;99532.00;;;;2070904;28;20295;-53
2021/05/14 02:22:29;;;;;;;7.97;6.90;;;;;20.90;99532.00;;;;2071271;28;20227;-53
2021/05/14 02:23:29;;;;;;;7.20;6.57;;;;;20.90;99527.00;;;;2071360;28;20221;-53
2021/05/14 02:24:30;;;;;;;7.43;6.73;;;;;20.90;99537.00;;;;2071240;28;20211;-53
2021/05/14 02:25:30;;;;;;;7.87;7.10;;;;;20.90;99535.00;;;;2071325;28;20223;-52
2021/05/14 02:26:31;;;;;;;7.43;6.73;;;;;20.90;99533.00;;;;2070313;28;20229;-53
2021/05/14 02:27:33;;;;;;;6.80;6.20;;;;;20.90;99530.00;;;;2071125;28;20253;-52
2021/05/14 02:28:33;;;;;;;7.40;6.70;;;;;20.90;99534.00;;;;2069659;28;20218;-52
2021/05/14 02:29:34;;;;;;;8.10;7.30;;;;;20.90;99538.00;;;;2071104;28;20241;-52
2021/05/14 02:30:35;;;;;;;7.50;6.90;;;;;20.90;99533.00;;;;2071354;28;20206;-52
2021/05/14 02:31:35;;;;;;;7.00;6.30;;;;;20.90;99535.00;;;;2071115;28;20663;-52
2021/05/14 02:32:35;;;;;;;7.40;6.70;;;;;20.90;99538.00;;;;2071078;28;20306;-52
2021/05/14 02:33:36;;;;;;;6.87;6.27;;;;;20.90;99532.00;;;;2070829;28;20214;-52
2021/05/14 02:34:36;;;;;;;7.67;6.97;;;;;20.90;99538.00;;;;2070352;28;20508;-55
2021/05/14 02:35:36;;;;;;;6.80;6.20;;;;;20.90;99536.00;;;;2073511;28;20246;-56
2021/05/14 02:36:37;;;;;;;6.50;5.90;;;;;20.90;99539.00;;;;2078465;28;20274;-53
2021/05/14 02:37:37;;;;;;;7.20;6.50;;;;;20.90;99535.00;;;;2079010;28;20211;-53
2021/05/14 02:38:37;;;;;;;6.60;5.90;;;;;20.90;99539.00;;;;2070958;28;20207;-54
2021/05/14 02:39:38;;;;;;;7.03;6.37;;;;;20.90;99528.00;;;;2073197;28;21101;-54
2021/05/14 02:40:38;;;;;;;6.50;5.77;;;;;20.90;99532.00;;;;2068162;28;20210;-54
2021/05/14 02:41:39;;;;;;;6.87;6.13;;;;;20.90;99528.00;;;;2074260;28;20237;-53
2021/05/14 02:42:39;;;;;;;5.97;5.47;;;;;20.90;99539.00;;;;2074022;28;20210;-52
2021/05/14 02:43:39;;;;;;;7.10;6.40;;;;;20.90;99535.00;;;;2070197;28;20215;-52
2021/05/14 02:44:40;;;;;;;7.07;6.37;;;;;20.90;99534.00;;;;2070176;28;20222;-53
2021/05/14 02:45:40;;;;;;;7.70;6.70;;;;;20.90;99532.00;;;;2071088;28;20211;-53
2021/05/14 02:46:41;;;;;;;6.37;5.77;;;;;20.90;99535.00;;;;2070517;28;20646;-53
2021/05/14 02:47:42;;;;;;;8.30;6.10;;;;;20.90;99539.00;;;;2070815;28;20214;-53
2021/05/14 02:48:42;;;;;;;5.97;5.47;;;;;20.90;99542.00;;;;2070899;28;20462;-53
2021/05/14 02:49:42;;;;;;;6.27;5.67;;;;;20.90;99542.00;;;;2070526;28;20257;-53
2021/05/14 02:50:43;;;;;;;6.87;6.27;;;;;20.90;99547.00;;;;2071139;28;20221;-53
2021/05/14 02:51:43;;;;;;;7.07;6.37;;;;;20.90;99551.00;;;;2071891;28;20615;-53
2021/05/14 02:52:43;;;;;;;5.37;4.87;;;;;20.90;99537.00;;;;2079199;28;20222;-53
2021/05/14 02:53:44;;;;;;;5.97;5.47;;;;;20.90;99542.00;;;;2079222;28;20215;-53
2021/05/14 02:54:44;;;;;;;6.30;5.70;;;;;20.90;99542.00;;;;2078806;28;20218;-52
2021/05/14 02:55:44;;;;;;;6.57;5.97;;;;;20.90;99544.00;;;;2078915;28;20290;-53
2021/05/14 02:56:45;;;;;;;6.80;6.10;;;;;20.90;99550.00;;;;2078532;28;20224;-53
2021/05/14 02:57:46;;;;;;;6.33;5.73;;;;;20.90;99547.00;;;;2079029;28;20219;-53
2021/05/14 02:58:47;;;;;;;5.80;5.30;;;;;20.90;99547.00;;;;2078770;28;20547;-53
2021/05/14 02:59:47;;;;;;;7.03;5.83;;;;;20.90;99546.00;;;;2079114;28;20269;-53
2021/05/14 03:00:47;;;;;;;6.60;6.00;;;;;20.90;99546.00;;;;2078936;28;20221;-53
2021/05/14 03:01:48;;;;;;;6.50;5.90;;;;;20.90;99545.00;;;;2078629;28;20238;-53
2021/05/14 03:02:48;;;;;;;6.30;5.70;;;;;20.90;99539.00;;;;2078539;28;20209;-53
2021/05/14 03:03:48;;;;;;;5.77;5.27;;;;;20.90;99548.00;;;;2078669;28;20222;-52
2021/05/14 03:04:49;;;;;;;5.73;5.23;;;;;20.90;99545.00;;;;2078493;28;20216;-52
2021/05/14 03:05:49;;;;;;;6.40;5.80;;;;;20.90;99546.00;;;;2078376;28;20281;-53
2021/05/14 03:06:50;;;;;;;5.53;5.03;;;;;20.90;99549.00;;;;2078306;28;20264;-53
2021/05/14 03:07:50;;;;;;;5.80;5.27;;;;;20.90;99554.00;;;;2076584;28;20297;-53
2021/05/14 03:08:50;;;;;;;5.80;5.30;;;;;20.90;99544.00;;;;2070985;28;20211;-52
2021/05/14 03:09:51;;;;;;;5.43;4.93;;;;;20.90;99543.00;;;;2069967;28;20211;-53
2021/05/14 03:10:51;;;;;;;5.83;5.33;;;;;20.90;99541.00;;;;2074263;28;20235;-53
2021/05/14 03:11:51;;;;;;;5.50;5.00;;;;;20.90;99547.00;;;;2072695;28;20215;-52
2021/05/14 03:12:52;;;;;;;5.70;5.10;;;;;20.90;99548.00;;;;2073182;28;20211;-53
2021/05/14 03:13:52;;;;;;;6.47;5.87;;;;;20.90;99557.00;;;;2075069;28;20210;-53
2021/05/14 03:14:53;;;;;;;5.30;4.90;;;;;20.90;99552.00;;;;2079098;28;20670;-52
2021/05/14 03:15:53;;;;;;;5.90;5.35;;;;;20.90;99537.00;;;;2078904;28;20223;-53
2021/05/14 03:16:54;;;;;;;5.63;5.13;;;;;20.90;99546.00;;;;2078114;28;20209;-53
2021/05/14 03:17:54;;;;;;;5.77;5.27;;;;;20.90;99543.00;;;;2078367;28;20753;-53
2021/05/14 03:18:54;;;;;;;5.20;4.80;;;;;20.80;99542.00;;;;2078664;28;20253;-52
2021/05/14 03:19:55;;;;;;;4.67;4.27;;;;;20.90;99547.00;;;;2078919;28;20220;-53
2021/05/14 03:20:55;;;;;;;5.23;4.83;;;;;20.80;99551.00;;;;2079108;28;20210;-53
2021/05/14 03:21:56;;;;;;;5.53;5.03;;;;;20.90;99548.00;;;;2078764;28;20239;-53
2021/05/14 03:22:56;;;;;;;5.07;4.67;;;;;20.80;99548.00;;;;2078856;28;20220;-52
2021/05/14 03:23:59;;;;;;;5.20;4.77;;;;;20.90;99543.00;;;;2070916;28;20219;-53
2021/05/14 03:25:00;;;;;;;5.57;5.07;;;;;20.90;99551.00;;;;2073834;28;20309;-53
2021/05/14 03:26:00;;;;;;;5.07;4.67;;;;;20.80;99546.00;;;;2078401;28;20221;-53
2021/05/14 03:27:00;;;;;;;5.80;5.30;;;;;20.80;99549.00;;;;2077585;28;20217;-53
2021/05/14 03:28:01;;;;;;;5.27;4.77;;;;;20.90;99548.00;;;;2074264;28;20219;-52
2021/05/14 03:29:02;;;;;;;5.00;4.50;;;;;20.90;99544.00;;;;2078116;28;20264;-52
2021/05/14 03:30:04;;;;;;;5.47;4.97;;;;;20.80;99549.00;;;;2078659;28;20209;-53
2021/05/14 03:31:04;;;;;;;5.70;5.20;;;;;20.90;99543.00;;;;2078546;28;20464;-53
2021/05/14 03:32:05;;;;;;;6.23;5.63;;;;;20.90;99557.00;;;;2078026;28;20272;-53
2021/05/14 03:33:05;;;;;;;5.50;5.00;;;;;20.90;99548.00;;;;2078312;28;20642;-53
2021/05/14 03:34:05;;;;;;;5.23;4.60;;;;;20.90;99545.00;;;;2070102;28;20223;-52
2021/05/14 03:35:06;;;;;;;5.80;5.30;;;;;20.90;99554.00;;;;2070187;28;20301;-52
2021/05/14 03:36:07;;;;;;;5.27;4.77;;;;;20.90;99542.00;;;;2069994;28;20239;-52
2021/05/14 03:37:07;;;;;;;5.20;4.70;;;;;20.90;99546.00;;;;2069110;28;20293;-52
2021/05/14 03:38:07;;;;;;;5.30;4.80;;;;;20.90;99567.00;;;;2070133;28;20207;-52
2021/05/14 03:39:08;;;;;;;5.17;4.67;;;;;20.80;99550.00;;;;2070203;28;20218;-53
2021/05/14 03:41:47;;;;;;;6.20;5.60;;;;;20.90;99554.00;;;;2072482;28;20226;-53
2021/05/14 03:42:41;;;;;;;5.60;5.10;;;;;20.80;99556.00;;;;2072684;28;20215;-52
2021/05/14 03:43:42;;;;;;;4.60;4.20;;;;;20.80;99554.00;;;;2070663;28;20298;-52
2021/05/14 03:44:42;;;;;;;4.60;4.20;;;;;20.80;99551.00;;;;2070719;28;20276;-53
2021/05/14 03:45:43;;;;;;;5.50;5.00;;;;;20.80;99553.00;;;;2070539;28;20269;-52
2021/05/14 03:46:43;;;;;;;5.90;5.30;;;;;20.80;99548.00;;;;2073463;28;20214;-52
2021/05/14 03:47:43;;;;;;;4.40;4.00;;;;;20.80;99553.00;;;;2070534;28;20222;-52
2021/05/14 03:48:44;;;;;;;4.67;4.27;;;;;20.80;99551.00;;;;2070653;28;20219;-52
2021/05/14 03:49:44;;;;;;;5.33;4.90;;;;;20.80;99554.00;;;;2070187;28;20222;-52
2021/05/14 03:50:52;;;;;;;4.97;4.57;;;;;20.80;99551.00;;;;2070542;28;20257;-52
2021/05/14 03:51:52;;;;;;;4.57;4.18;;;;;20.80;99548.00;;;;2070065;28;20203;-53
2021/05/14 03:52:53;;;;;;;4.90;4.50;;;;;20.80;99546.00;;;;2070699;28;20281;-53
2021/05/14 03:53:54;;;;;;;4.78;4.38;;;;;20.80;99554.00;;;;2069315;28;20219;-53
2021/05/14 03:54:54;;;;;;;4.70;4.30;;;;;20.80;99549.00;;;;2069872;28;20206;-53
2021/05/14 03:55:54;;;;;;;5.03;4.53;;;;;20.80;99554.00;;;;2070465;28;20310;-53
2021/05/14 03:56:55;;;;;;;4.67;4.27;;;;;20.90;99561.00;;;;2069519;28;20207;-53
2021/05/14 03:57:55;;;;;;;4.70;4.30;;;;;20.80;99549.00;;;;2070490;28;20227;-53
2021/05/14 03:58:55;;;;;;;4.43;4.03;;;;;20.80;99548.00;;;;2061615;28;20210;-53
2021/05/14 03:59:56;;;;;;;5.10;4.60;;;;;20.80;99553.00;;;;2074521;28;20226;-53
2021/05/14 04:00:56;;;;;;;4.70;4.30;;;;;20.80;99548.00;;;;2077233;28;20222;-53
2021/05/14 04:01:57;;;;;;;4.50;4.10;;;;;20.80;99549.00;;;;2070315;28;20214;-53
2021/05/14 04:02:57;;;;;;;4.63;4.23;;;;;20.80;99549.00;;;;2070741;28;20221;-53
2021/05/14 04:03:58;;;;;;;4.90;4.50;;;;;20.80;99550.00;;;;2070548;28;20994;-53
2021/05/14 04:04:59;;;;;;;4.95;4.45;;;;;20.80;99555.00;;;;2070351;28;20268;-53
2021/05/14 04:05:59;;;;;;;4.73;4.37;;;;;20.90;99552.00;;;;2070524;28;20238;-52
2021/05/14 04:07:00;;;;;;;4.83;4.43;;;;;20.80;99555.00;;;;2073179;28;20694;-52
2021/05/14 04:08:01;;;;;;;4.97;4.57;;;;;20.80;99554.00;;;;2077897;28;20249;-52
2021/05/14 04:09:02;;;;;;;4.30;4.00;;;;;20.80;99553.00;;;;2078638;28;20268;-53
2021/05/14 04:14:57;;;;;;;4.78;4.38;;;;;20.80;99552.00;;;;2076393;28;20214;-53
2021/05/14 04:15:57;;;;;;;5.20;4.80;;;;;20.80;99550.00;;;;2078333;28;20230;-53
2021/05/14 04:16:58;;;;;;;5.00;4.50;;;;;20.80;99553.00;;;;2074730;28;20225;-52
2021/05/14 04:17:58;;;;;;;4.43;4.13;;;;;20.80;99551.00;;;;2078413;28;20229;-53
2021/05/14 04:18:59;;;;;;;4.60;4.20;;;;;20.80;99555.00;;;;2078385;28;20449;-53
2021/05/14 04:19:59;;;;;;;5.30;4.80;;;;;20.80;99556.00;;;;2073190;28;20217;-52
2021/05/14 04:21:00;;;;;;;4.83;4.43;;;;;20.80;99551.00;;;;2086199;28;20210;-53
2021/05/14 04:22:02;;;;;;;4.57;4.17;;;;;20.80;99548.00;;;;2077787;28;20300;-53
2021/05/14 04:23:02;;;;;;;4.07;3.75;;;;;20.80;99552.00;;;;2078691;28;20298;-53
2021/05/14 04:24:05;;;;;;;4.03;3.70;;;;;20.80;99555.00;;;;2069335;28;20213;-52
2021/05/14 04:25:05;;;;;;;4.47;3.78;;;;;20.80;99554.00;;;;2086029;28;20233;-53
2021/05/14 04:26:06;;;;;;;4.03;3.73;;;;;20.80;99546.00;;;;2084587;28;20205;-52
2021/05/14 04:27:06;;;;;;;4.10;3.80;;;;;20.80;99549.00;;;;2077719;28;20213;-53
2021/05/14 04:28:06;;;;;;;4.13;3.73;;;;;20.80;99551.00;;;;2078551;28;20213;-53
2021/05/14 04:29:07;;;;;;;4.40;4.00;;;;;20.80;99552.00;;;;2078567;28;20237;-52
2021/05/14 04:30:08;;;;;;;4.43;4.03;;;;;20.80;99554.00;;;;2077940;28;20322;-53
2021/05/14 04:31:08;;;;;;;4.30;3.90;;;;;20.80;99546.00;;;;2078304;28;20686;-53
2021/05/14 04:32:08;;;;;;;4.50;4.10;;;;;20.80;99552.00;;;;2078303;28;20456;-53
2021/05/14 04:33:09;;;;;;;3.97;3.57;;;;;20.80;99550.00;;;;2078593;28;20209;-53
2021/05/14 04:34:10;;;;;;;4.50;4.00;;;;;20.80;99556.00;;;;2078496;28;20297;-53
2021/05/14 04:35:11;;;;;;;4.40;4.00;;;;;20.80;99552.00;;;;2078651;28;20229;-53
2021/05/14 04:36:11;;;;;;;4.50;4.10;;;;;20.80;99546.00;;;;2078314;28;20308;-53
2021/05/14 04:37:12;;;;;;;4.50;4.10;;;;;20.80;99561.00;;;;2077864;28;20302;-52
2021/05/14 04:38:13;;;;;;;4.57;4.18;;;;;20.80;99554.00;;;;2078539;28;20333;-53
2021/05/14 04:39:13;;;;;;;3.80;3.50;;;;;20.80;99556.00;;;;2078584;28;20218;-53
2021/05/14 04:40:14;;;;;;;4.10;3.80;;;;;20.80;99556.00;;;;2072639;28;20215;-53
2021/05/14 04:41:14;;;;;;;3.90;3.50;;;;;20.80;99549.00;;;;2072385;28;20714;-52
2021/05/14 04:42:14;;;;;;;4.40;4.00;;;;;20.80;99553.00;;;;2072175;28;20230;-52
2021/05/14 04:43:15;;;;;;;4.00;3.70;;;;;20.80;99555.00;;;;2070313;28;20567;-53
2021/05/14 04:44:16;;;;;;;3.90;3.60;;;;;20.80;99555.00;;;;2070110;28;20246;-53
2021/05/14 04:45:16;;;;;;;3.90;3.60;;;;;20.80;99567.00;;;;2070258;28;20229;-52
2021/05/14 04:46:17;;;;;;;3.73;3.43;;;;;20.80;99561.00;;;;2070281;28;20227;-52
2021/05/14 04:47:17;;;;;;;3.67;3.37;;;;;20.80;99564.00;;;;2069494;28;20229;-52
2021/05/14 04:48:17;;;;;;;3.93;3.60;;;;;20.80;99568.00;;;;2070127;28;20257;-52
2021/05/14 04:49:18;;;;;;;4.23;3.83;;;;;20.80;99562.00;;;;2070239;28;20237;-52
2021/05/14 04:50:18;;;;;;;4.10;3.77;;;;;20.80;99571.00;;;;2070015;28;20226;-52
2021/05/14 04:51:19;;;;;;;4.27;3.93;;;;;20.80;99557.00;;;;2069818;28;20227;-52
2021/05/14 04:52:22;;;;;;;3.90;3.60;;;;;20.80;99564.00;;;;2073023;28;20244;-52
2021/05/14 04:53:28;;;;;;;4.35;4.05;;;;;20.80;99570.00;;;;2078334;28;20463;-53
2021/05/14 04:54:28;;;;;;;3.90;3.50;;;;;20.80;99562.00;;;;2065794;28;20218;-54
2021/05/14 04:55:29;;;;;;;3.97;3.67;;;;;20.80;99567.00;;;;2062215;28;20773;-53
2021/05/14 04:56:29;;;;;;;3.90;3.60;;;;;20.80;99569.00;;;;2069697;28;20730;-53
2021/05/14 04:57:29;;;;;;;3.70;3.40;;;;;20.80;99563.00;;;;2069655;28;20302;-53
2021/05/14 04:58:30;;;;;;;3.90;3.33;;;;;20.80;99570.00;;;;2067822;28;20320;-53
2021/05/14 04:59:30;;;;;;;3.67;3.37;;;;;20.80;99565.00;;;;2069492;28;20245;-53
2021/05/14 05:00:31;;;;;;;3.60;3.30;;;;;20.80;99569.00;;;;2069513;28;20219;-53
2021/05/14 05:01:31;;;;;;;4.13;3.83;;;;;20.80;99563.00;;;;2068903;28;20219;-53
2021/05/14 05:02:32;;;;;;;4.40;4.00;;;;;20.80;99565.00;;;;2069110;28;20688;-53
2021/05/14 05:03:32;;;;;;;4.03;3.67;;;;;20.80;99567.00;;;;2073831;28;20217;-52
2021/05/14 05:04:36;;;;;;;3.77;3.47;;;;;20.80;99568.00;;;;2077658;28;20214;-53
2021/05/14 05:05:36;;;;;;;4.07;3.78;;;;;20.80;99569.00;;;;2079246;28;20217;-53
2021/05/14 05:06:37;;;;;;;3.50;3.20;;;;;20.80;99568.00;;;;2078385;28;20220;-52
2021/05/14 05:07:38;;;;;;;3.57;3.27;;;;;20.80;99569.00;;;;2070859;28;20284;-52